Time;durP1;ratioP1;P1;durP2;ratioP2;P2;SDS_P1;SDS_P2;PMS_P1;PMS_P2;Temp;Humidity;BMP_temperature;BMP_pressure;BME280_temperature;BME280_humidity;BME280_pressure;Samples;Min_cycle;Max_cycle;Signal;HPM_P1;HPM_P2
2022/06/13 00:01:57;;;;;;;18.63;5.55;;;15.50;74.80;;;;;;5064375;28;20111;-80
2022/06/13 00:04:22;;;;;;;14.65;6.68;;;15.40;75.10;;;;;;5080061;27;20048;-79
2022/06/13 00:06:48;;;;;;;17.55;6.00;;;15.40;75.40;;;;;;5081809;28;20147;-80
2022/06/13 00:09:14;;;;;;;18.05;5.70;;;15.30;75.50;;;;;;5082433;27;20036;-81
2022/06/13 00:11:40;;;;;;;13.30;5.75;;;15.30;75.70;;;;;;5085333;28;20024;-80
2022/06/13 00:14:06;;;;;;;17.38;5.78;;;15.40;75.70;;;;;;5080913;28;20059;-80
2022/06/13 00:16:32;;;;;;;18.42;5.93;;;15.40;75.60;;;;;;5081758;28;20038;-80
2022/06/13 00:18:58;;;;;;;16.02;6.10;;;15.40;75.60;;;;;;5080136;28;20119;-79
2022/06/13 00:21:28;;;;;;;15.63;5.72;;;15.40;75.90;;;;;;5084048;28;20109;-79
2022/06/13 00:23:54;;;;;;;16.73;5.78;;;15.40;75.70;;;;;;5093201;28;20027;-83
2022/06/13 00:26:21;;;;;;;15.55;6.30;;;15.30;76.20;;;;;;5086786;28;20037;-79
2022/06/13 00:28:49;;;;;;;17.33;6.28;;;15.40;76.10;;;;;;5077747;27;20106;-82
2022/06/13 00:31:14;;;;;;;19.13;6.75;;;15.40;76.20;;;;;;5071499;28;20048;-81
2022/06/13 00:33:40;;;;;;;20.55;5.85;;;15.40;76.10;;;;;;5079415;27;20448;-79
2022/06/13 00:36:06;;;;;;;20.15;6.35;;;15.40;76.30;;;;;;5077865;28;20483;-82
2022/06/13 00:38:32;;;;;;;17.52;6.25;;;15.30;76.40;;;;;;5084008;28;20110;-80
2022/06/13 00:40:58;;;;;;;16.48;6.20;;;15.20;77.00;;;;;;5064492;28;20111;-79
2022/06/13 00:43:24;;;;;;;19.50;6.88;;;15.10;77.30;;;;;;5064376;28;20508;-80
2022/06/13 00:45:50;;;;;;;20.73;7.10;;;15.10;77.40;;;;;;5082303;28;20360;-80
2022/06/13 00:48:26;;;;;;;18.27;6.65;;;15.10;77.40;;;;;;5086033;28;20070;-81
2022/06/13 00:50:58;;;;;;;19.05;6.95;;;15.10;77.40;;;;;;5080248;28;20543;-79
2022/06/13 00:53:26;;;;;;;16.92;6.28;;;15.00;77.90;;;;;;5083168;28;20084;-84
2022/06/13 00:55:58;;;;;;;17.63;6.78;;;15.00;78.10;;;;;;5083649;28;20040;-82
2022/06/13 00:58:30;;;;;;;22.45;7.60;;;15.00;78.20;;;;;;5083550;27;20151;-79
2022/06/13 01:00:57;;;;;;;22.48;7.45;;;14.90;78.30;;;;;;5084683;28;20036;-79
2022/06/13 01:03:25;;;;;;;19.20;7.78;;;14.80;78.50;;;;;;5082711;27;20115;-79
2022/06/13 01:05:53;;;;;;;18.40;7.18;;;14.80;78.60;;;;;;5084752;28;20546;-79
2022/06/13 01:08:21;;;;;;;21.55;7.15;;;14.80;78.90;;;;;;5088754;28;20035;-80
2022/06/13 01:13:52;;;;;;;20.67;7.30;;;14.80;79.00;;;;;;5088002;28;20089;-84
2022/06/13 01:16:30;;;;;;;22.05;8.63;;;14.70;79.20;;;;;;5064319;28;20379;-80
2022/06/13 01:19:26;;;;;;;19.63;8.82;;;14.60;79.20;;;;;;5083941;28;20050;-79
2022/06/13 01:22:29;;;;;;;20.08;8.45;;;14.60;79.80;;;;;;5081085;28;20391;-82
2022/06/13 01:25:09;;;;;;;22.67;9.60;;;14.60;79.70;;;;;;5080436;28;20097;-81
2022/06/13 01:27:53;;;;;;;24.02;8.63;;;14.60;79.80;;;;;;5081930;28;20031;-81
2022/06/13 01:30:43;;;;;;;20.77;9.05;;;14.60;80.00;;;;;;5083729;28;20131;-79
2022/06/13 01:33:47;;;;;;;26.05;10.45;;;14.60;80.20;;;;;;5080259;28;20483;-80
2022/06/13 01:36:21;;;;;;;21.92;9.68;;;14.60;80.30;;;;;;5103417;28;20033;-79
2022/06/13 01:39:04;;;;;;;19.67;9.98;;;14.50;80.60;;;;;;5084287;28;20174;-79
2022/06/13 01:41:53;;;;;;;20.20;9.93;;;14.50;80.90;;;;;;5062560;28;20044;-80
2022/06/13 01:45:00;;;;;;;28.05;10.85;;;14.50;81.00;;;;;;5077421;28;20085;-81
2022/06/13 01:47:56;;;;;;;25.25;10.30;;;14.40;81.00;;;;;;5071155;28;20323;-80
2022/06/13 01:50:32;;;;;;;23.58;10.25;;;14.40;81.10;;;;;;5072913;28;20146;-81
2022/06/13 01:53:21;;;;;;;19.98;9.65;;;14.40;81.30;;;;;;5082099;28;20441;-81
2022/06/13 01:56:02;;;;;;;19.42;9.02;;;14.30;81.40;;;;;;5096553;28;20519;-79
2022/06/13 01:59:14;;;;;;;19.10;9.95;;;14.40;81.50;;;;;;5085584;28;20043;-79
2022/06/13 02:01:58;;;;;;;18.90;8.75;;;14.30;81.40;;;;;;5087241;28;20052;-79
2022/06/13 02:04:31;;;;;;;22.25;8.77;;;14.30;81.60;;;;;;5079861;28;20111;-80
2022/06/13 02:07:22;;;;;;;21.48;8.35;;;14.20;81.60;;;;;;5080715;28;20059;-79
2022/06/13 02:09:53;;;;;;;20.25;9.07;;;14.20;81.60;;;;;;5082680;28;20090;-85
2022/06/13 02:12:21;;;;;;;21.75;8.30;;;14.10;81.70;;;;;;5083642;28;20710;-82
2022/06/13 02:14:55;;;;;;;19.05;7.85;;;14.10;81.70;;;;;;5079882;28;20491;-79
2022/06/13 02:17:25;;;;;;;27.42;9.20;;;14.10;81.70;;;;;;5081483;28;20040;-80
2022/06/13 02:19:54;;;;;;;19.13;7.25;;;14.10;81.80;;;;;;5078101;28;20044;-79
2022/06/13 02:22:35;;;;;;;19.75;8.15;;;14.10;81.60;;;;;;5060829;28;20040;-79
2022/06/13 02:25:17;;;;;;;17.30;7.82;;;14.10;81.60;;;;;;5083083;28;20094;-79
2022/06/13 02:27:47;;;;;;;20.52;7.90;;;14.10;81.60;;;;;;5080776;28;20036;-85
2022/06/13 02:30:17;;;;;;;17.38;7.85;;;14.10;81.80;;;;;;5081098;28;20032;-82
2022/06/13 02:32:54;;;;;;;17.38;7.07;;;14.10;81.60;;;;;;5082522;27;20040;-79
2022/06/13 02:35:29;;;;;;;22.08;8.85;;;14.00;81.60;;;;;;5080929;28;20024;-80
2022/06/13 02:38:00;;;;;;;18.45;7.57;;;14.10;81.60;;;;;;5082772;28;20040;-78
2022/06/13 02:40:36;;;;;;;22.27;8.98;;;14.10;81.60;;;;;;5082120;28;20032;-81
2022/06/13 02:43:25;;;;;;;20.17;8.95;;;14.00;81.40;;;;;;5078232;28;20089;-81
2022/06/13 02:46:00;;;;;;;22.40;7.38;;;14.00;81.30;;;;;;5077028;28;20041;-83
2022/06/13 02:48:53;;;;;;;19.83;7.57;;;14.10;81.20;;;;;;5074808;28;20028;-79
2022/06/13 02:51:47;;;;;;;20.08;7.68;;;14.10;80.80;;;;;;5093304;28;20482;-79
2022/06/13 02:54:40;;;;;;;22.10;7.50;;;14.10;80.90;;;;;;5086440;28;20089;-81
2022/06/13 02:57:23;;;;;;;19.95;7.00;;;14.10;80.80;;;;;;5083102;28;20732;-81
2022/06/13 03:00:18;;;;;;;18.83;7.75;;;14.10;80.70;;;;;;5079991;28;20345;-81
2022/06/13 03:03:04;;;;;;;18.52;7.28;;;14.10;80.70;;;;;;5084493;28;20471;-79
2022/06/13 03:05:45;;;;;;;22.77;7.28;;;14.10;80.70;;;;;;5086885;28;20028;-81
2022/06/13 03:08:15;;;;;;;21.17;8.23;;;14.10;80.60;;;;;;5084812;28;20036;-86
2022/06/13 03:11:16;;;;;;;24.00;6.85;;;14.10;80.50;;;;;;5086720;28;20044;-79
2022/06/13 03:14:00;;;;;;;21.27;7.88;;;14.10;80.40;;;;;;5082082;28;20032;-80
2022/06/13 03:16:38;;;;;;;14.95;6.90;;;14.10;80.30;;;;;;5083036;28;20128;-79
2022/06/13 03:19:10;;;;;;;18.65;6.97;;;14.10;80.20;;;;;;5079759;28;20068;-79
2022/06/13 03:21:49;;;;;;;17.08;7.30;;;14.10;80.10;;;;;;5067165;28;20052;-81
2022/06/13 03:24:28;;;;;;;16.00;6.32;;;14.10;80.10;;;;;;5083924;28;20020;-80
2022/06/13 03:27:03;;;;;;;17.60;7.88;;;14.10;80.20;;;;;;5084490;28;20036;-81
2022/06/13 03:29:34;;;;;;;16.73;6.88;;;14.10;80.00;;;;;;5080503;28;20020;-80
2022/06/13 03:32:20;;;;;;;20.60;7.30;;;14.10;79.80;;;;;;5084982;28;20036;-80
2022/06/13 03:34:52;;;;;;;16.17;7.50;;;14.10;79.80;;;;;;5085998;28;20047;-79
2022/06/13 03:37:34;;;;;;;16.02;6.15;;;14.10;79.70;;;;;;5085320;28;20043;-79
2022/06/13 03:40:23;;;;;;;16.55;6.50;;;14.10;79.50;;;;;;5087345;28;20040;-79
2022/06/13 03:43:02;;;;;;;14.95;6.03;;;14.10;79.40;;;;;;5085482;28;20052;-79
2022/06/13 03:45:54;;;;;;;15.68;5.95;;;14.10;79.30;;;;;;5080297;28;20032;-79
2022/06/13 03:48:26;;;;;;;13.95;5.53;;;14.10;79.20;;;;;;5086627;28;20032;-80
2022/06/13 03:51:08;;;;;;;15.10;6.10;;;14.10;78.90;;;;;;5086959;28;20054;-81
2022/06/13 03:53:45;;;;;;;16.33;5.78;;;14.10;78.80;;;;;;5085214;28;20038;-80
2022/06/13 03:56:41;;;;;;;14.63;4.93;;;14.10;78.60;;;;;;5083427;28;20509;-80
2022/06/13 03:59:20;;;;;;;15.35;5.90;;;14.10;78.40;;;;;;5073450;28;20031;-81
2022/06/13 04:01:52;;;;;;;14.73;5.13;;;14.10;78.10;;;;;;5102069;28;20047;-79
2022/06/13 04:04:21;;;;;;;17.83;5.82;;;14.10;77.80;;;;;;5063674;28;20024;-80
2022/06/13 04:06:47;;;;;;;15.20;4.97;;;14.10;77.50;;;;;;5069755;28;20028;-81
2022/06/13 04:09:25;;;;;;;15.98;5.72;;;14.10;77.20;;;;;;5066049;28;20474;-80
2022/06/13 04:12:21;;;;;;;15.38;5.65;;;14.20;77.00;;;;;;5086956;27;20375;-80
2022/06/13 04:15:06;;;;;;;15.00;5.07;;;14.20;77.00;;;;;;5084556;28;20043;-79
2022/06/13 04:18:01;;;;;;;16.42;5.32;;;14.30;76.90;;;;;;5077477;28;20157;-84
2022/06/13 04:20:42;;;;;;;;;;;14.30;76.70;;;;;;5081754;28;20040;-83
2022/06/13 04:23:24;;;;;;;15.35;4.85;;;14.40;76.50;;;;;;5079860;27;20844;-82
2022/06/13 04:26:01;;;;;;;13.73;4.65;;;14.40;76.40;;;;;;5081051;28;20024;-81
2022/06/13 04:28:53;;;;;;;16.40;6.15;;;14.40;76.40;;;;;;5078885;28;20036;-80
2022/06/13 04:31:20;;;;;;;13.77;4.90;;;14.50;76.00;;;;;;5080645;28;20612;-80
2022/06/13 04:33:58;;;;;;;13.20;4.63;;;14.60;75.90;;;;;;5078691;28;20086;-80
2022/06/13 04:36:25;;;;;;;14.75;4.97;;;14.60;75.80;;;;;;5078114;28;20032;-83
2022/06/13 04:38:54;;;;;;;16.30;5.13;;;14.60;75.70;;;;;;5079462;28;20028;-79
2022/06/13 04:41:23;;;;;;;12.25;4.80;;;14.60;75.50;;;;;;5078859;28;20214;-79
2022/06/13 04:43:53;;;;;;;12.45;4.53;;;14.70;75.40;;;;;;5084129;28;20028;-80
2022/06/13 04:46:22;;;;;;;14.40;4.57;;;14.70;75.10;;;;;;5088048;28;20032;-83
2022/06/13 04:48:50;;;;;;;16.85;5.80;;;14.70;75.10;;;;;;5093585;28;20020;-85
2022/06/13 04:51:27;;;;;;;14.90;5.60;;;14.80;75.00;;;;;;5093408;28;20051;-84
2022/06/13 04:53:59;;;;;;;11.93;4.38;;;14.80;74.70;;;;;;5089123;28;20147;-80
2022/06/13 04:56:25;;;;;;;13.75;4.43;;;14.90;74.50;;;;;;5082037;28;20036;-80
2022/06/13 04:58:53;;;;;;;14.75;4.90;;;14.90;74.60;;;;;;5099168;28;20035;-83
2022/06/13 05:01:45;;;;;;;13.93;5.03;;;14.90;74.30;;;;;;5083060;27;20042;-83
2022/06/13 05:04:17;;;;;;;13.77;4.43;;;15.10;74.00;;;;;;5079369;28;20024;-79
2022/06/13 05:06:55;;;;;;;13.30;5.18;;;15.20;73.70;;;;;;5083759;28;20058;-81
2022/06/13 05:09:33;;;;;;;11.98;4.38;;;15.90;72.70;;;;;;5063867;28;20048;-79
2022/06/13 05:12:20;;;;;;;14.80;4.75;;;17.20;67.80;;;;;;5085697;28;20043;-79
2022/06/13 05:14:52;;;;;;;13.95;3.97;;;18.50;63.30;;;;;;5098311;28;20036;-82
2022/06/13 05:17:33;;;;;;;13.43;4.07;;;19.10;61.20;;;;;;5083145;28;20032;-82
2022/06/13 05:20:23;;;;;;;11.18;3.85;;;19.70;58.90;;;;;;5079854;28;20039;-82
2022/06/13 05:23:04;;;;;;;13.32;3.90;;;20.50;56.20;;;;;;5062942;28;20448;-79
2022/06/13 05:25:43;;;;;;;11.13;3.30;;;21.10;53.60;;;;;;5079674;28;20035;-80
2022/06/13 05:28:10;;;;;;;10.40;3.38;;;21.60;52.70;;;;;;5079428;27;20043;-81
2022/06/13 05:30:36;;;;;;;13.80;4.20;;;21.80;52.40;;;;;;5081695;28;20047;-80
2022/06/13 05:33:01;;;;;;;12.02;3.70;;;22.40;50.30;;;;;;5075512;27;20055;-79
2022/06/13 05:35:32;;;;;;;10.20;3.03;;;22.10;50.40;;;;;;5082092;28;20032;-78
2022/06/13 05:38:00;;;;;;;9.45;2.80;;;22.60;50.00;;;;;;5082292;28;20031;-78
2022/06/13 05:40:26;;;;;;;14.88;3.65;;;23.30;48.20;;;;;;5080289;28;20040;-81
2022/06/13 05:42:52;;;;;;;9.48;3.35;;;22.60;49.40;;;;;;5080934;28;20036;-81
2022/06/13 05:45:20;;;;;;;14.15;3.83;;;22.60;49.10;;;;;;5064217;28;20046;-80
2022/06/13 05:47:48;;;;;;;10.50;3.63;;;22.60;49.40;;;;;;5086830;28;20113;-80
2022/06/13 05:50:15;;;;;;;11.40;2.90;;;22.10;50.10;;;;;;5084821;28;20124;-80
2022/06/13 05:52:41;;;;;;;10.15;3.72;;;21.60;51.80;;;;;;5086106;28;20036;-80
2022/06/13 05:55:07;;;;;;;11.43;3.50;;;20.60;53.70;;;;;;5084362;28;20449;-80
2022/06/13 05:57:33;;;;;;;11.73;3.75;;;19.50;56.70;;;;;;5082186;28;20042;-82
2022/06/13 05:59:58;;;;;;;10.55;3.83;;;18.80;59.50;;;;;;5081915;28;20040;-81
2022/06/13 06:02:24;;;;;;;14.18;3.60;;;18.60;61.20;;;;;;5082582;28;20088;-81
2022/06/13 06:04:51;;;;;;;12.52;3.92;;;18.00;62.40;;;;;;5079140;28;20032;-82
2022/06/13 06:07:16;;;;;;;11.30;3.85;;;17.80;63.10;;;;;;5095811;28;20046;-84
2022/06/13 06:09:42;;;;;;;11.18;4.10;;;17.30;64.40;;;;;;5065178;28;20048;-84
2022/06/13 06:12:08;;;;;;;14.90;4.00;;;17.20;64.60;;;;;;5058474;28;20045;-84
2022/06/13 06:14:34;;;;;;;11.90;3.75;;;17.30;65.30;;;;;;5097803;27;20111;-80
2022/06/13 06:16:59;;;;;;;14.80;4.18;;;17.50;65.50;;;;;;5083707;27;20041;-76
2022/06/13 06:19:26;;;;;;;13.77;4.05;;;17.70;64.90;;;;;;5080686;27;21151;-78
2022/06/13 06:21:52;;;;;;;13.63;4.10;;;17.90;64.20;;;;;;5081771;28;20980;-77
2022/06/13 06:24:17;;;;;;;10.52;3.33;;;17.90;64.50;;;;;;5082068;28;20469;-76
2022/06/13 06:26:43;;;;;;;12.43;3.70;;;17.60;63.70;;;;;;5084012;28;20115;-78
2022/06/13 06:29:09;;;;;;;14.57;3.47;;;17.60;64.10;;;;;;5077710;27;20044;-77
2022/06/13 06:31:35;;;;;;;11.98;3.50;;;17.50;63.90;;;;;;5082359;28;20511;-78
2022/06/13 06:34:01;;;;;;;7.13;2.83;;;17.30;63.80;;;;;;5081024;28;20039;-78
2022/06/13 06:36:27;;;;;;;9.60;3.10;;;17.20;63.50;;;;;;5081351;28;20048;-79
2022/06/13 06:38:53;;;;;;;8.77;2.67;;;17.20;63.90;;;;;;5085922;28;20056;-79
2022/06/13 06:41:18;;;;;;;8.45;2.92;;;17.30;63.20;;;;;;5083473;28;20550;-80
2022/06/13 06:43:44;;;;;;;10.27;3.05;;;17.40;63.20;;;;;;5066412;28;20064;-78
2022/06/13 06:46:11;;;;;;;9.55;3.50;;;17.50;62.70;;;;;;5086852;28;20159;-78
2022/06/13 06:48:37;;;;;;;8.82;2.70;;;17.60;62.60;;;;;;5064472;28;20458;-80
2022/06/13 06:51:12;;;;;;;9.68;2.80;;;17.60;61.00;;;;;;5080651;28;20115;-78
2022/06/13 07:01:52;;;;;;;9.50;2.55;;;17.90;61.00;;;;;;5085273;28;20075;-78
2022/06/13 07:04:18;;;;;;;8.50;2.20;;;18.00;60.10;;;;;;5083658;28;20074;-79
2022/06/13 07:06:44;;;;;;;11.23;2.53;;;18.00;59.50;;;;;;5085374;27;20634;-77
2022/06/13 07:09:10;;;;;;;9.50;2.60;;;18.00;59.20;;;;;;5082865;28;20032;-78
2022/06/13 07:11:54;;;;;;;10.32;3.08;;;18.10;59.30;;;;;;5067841;28;20507;-79
2022/06/13 07:14:31;;;;;;;9.80;2.38;;;18.10;59.50;;;;;;5083075;28;20293;-78
2022/06/13 07:16:59;;;;;;;9.35;2.55;;;18.20;59.40;;;;;;5085826;28;20109;-78
2022/06/13 07:19:25;;;;;;;8.75;2.58;;;18.20;58.40;;;;;;5085437;27;20032;-78
2022/06/13 07:21:52;;;;;;;8.88;2.75;;;18.30;59.60;;;;;;5085942;28;20112;-78
2022/06/13 07:24:18;;;;;;;8.68;2.65;;;18.60;58.30;;;;;;5084940;28;20141;-80
2022/06/13 07:26:44;;;;;;;10.13;2.80;;;18.70;56.20;;;;;;5084803;28;20028;-80
2022/06/13 07:29:10;;;;;;;8.10;2.58;;;18.70;56.90;;;;;;5084032;27;20042;-79
2022/06/13 07:31:38;;;;;;;9.30;2.35;;;18.80;58.70;;;;;;5088605;28;20051;-79
2022/06/13 07:34:06;;;;;;;11.00;3.25;;;19.00;57.20;;;;;;5081922;28;20036;-84
2022/06/13 07:36:32;;;;;;;9.77;3.03;;;18.90;57.40;;;;;;5066304;28;20028;-79
2022/06/13 07:38:58;;;;;;;9.05;2.45;;;19.10;55.60;;;;;;5082174;27;20376;-84
2022/06/13 07:41:24;;;;;;;5.20;2.10;;;19.00;56.90;;;;;;5088944;28;20032;-77
2022/06/13 07:43:53;;;;;;;8.77;2.55;;;19.10;57.30;;;;;;5070638;28;20115;-83
2022/06/13 07:46:20;;;;;;;9.38;2.05;;;19.20;55.10;;;;;;5085717;28;20093;-78
2022/06/13 07:48:48;;;;;;;7.25;2.38;;;19.10;53.60;;;;;;5086809;28;20502;-78
2022/06/13 07:51:13;;;;;;;9.98;2.70;;;19.10;54.80;;;;;;5084128;28;20135;-80
2022/06/13 07:53:39;;;;;;;9.65;2.40;;;18.90;56.20;;;;;;5086433;28;20444;-81
2022/06/13 07:56:05;;;;;;;9.13;2.92;;;18.70;57.10;;;;;;5083287;27;20031;-84
2022/06/13 07:58:35;;;;;;;8.98;2.47;;;18.50;57.70;;;;;;5067846;28;21276;-78
2022/06/13 08:01:01;;;;;;;9.55;2.50;;;18.20;58.90;;;;;;5085953;28;20036;-79
2022/06/13 08:03:31;;;;;;;7.03;2.25;;;18.30;58.70;;;;;;5084516;28;20533;-82
2022/06/13 08:05:57;;;;;;;9.32;2.70;;;18.60;56.40;;;;;;5086423;28;20060;-81
2022/06/13 08:08:24;;;;;;;10.55;2.38;;;18.90;56.40;;;;;;5061506;28;20361;-78
2022/06/13 08:10:51;;;;;;;8.30;2.13;;;19.10;54.50;;;;;;5069079;28;20420;-78
2022/06/13 08:13:19;;;;;;;10.77;2.30;;;19.20;54.50;;;;;;5060376;28;20557;-80
2022/06/13 08:15:45;;;;;;;6.45;1.40;;;19.50;53.20;;;;;;5063766;28;20025;-78
2022/06/13 08:18:13;;;;;;;8.55;1.80;;;19.50;50.60;;;;;;5062695;28;20033;-79
2022/06/13 08:20:39;;;;;;;6.32;1.88;;;19.70;52.10;;;;;;5061702;28;20216;-78
2022/06/13 08:23:08;;;;;;;6.63;2.20;;;19.80;53.20;;;;;;5067025;28;20052;-80
2022/06/13 08:25:39;;;;;;;7.53;1.70;;;19.50;54.70;;;;;;5072195;28;20029;-82
2022/06/13 08:28:06;;;;;;;5.28;1.63;;;19.40;54.40;;;;;;5076675;28;20071;-79
2022/06/13 08:30:47;;;;;;;6.78;2.25;;;18.90;53.60;;;;;;5077171;28;20055;-77
2022/06/13 08:33:14;;;;;;;7.57;2.20;;;19.00;53.80;;;;;;5063690;28;20039;-79
2022/06/13 08:35:40;;;;;;;5.70;1.80;;;19.00;54.50;;;;;;5064857;28;20033;-78
2022/06/13 08:38:06;;;;;;;6.55;2.10;;;19.30;53.20;;;;;;5065224;28;20036;-82
2022/06/13 08:40:54;;;;;;;6.32;1.92;;;20.00;52.30;;;;;;5065507;28;20135;-78
2022/06/13 08:43:35;;;;;;;7.05;2.33;;;19.80;52.20;;;;;;5063637;28;20037;-80
2022/06/13 08:46:31;;;;;;;8.00;2.25;;;19.60;52.20;;;;;;5063967;28;20041;-78
2022/06/13 08:49:06;;;;;;;5.75;1.80;;;20.10;53.10;;;;;;5024148;28;20467;-79
2022/06/13 08:51:44;;;;;;;8.57;1.88;;;20.20;50.70;;;;;;5061260;28;20049;-80
2022/06/13 08:54:15;;;;;;;9.85;2.67;;;20.10;51.50;;;;;;5105820;28;20039;-84
2022/06/13 08:56:43;;;;;;;6.93;2.33;;;20.50;50.40;;;;;;5073555;28;20043;-84
2022/06/13 08:59:22;;;;;;;6.60;1.90;;;20.50;50.40;;;;;;5061479;28;20039;-83
2022/06/13 09:02:06;;;;;;;7.45;2.30;;;20.80;50.30;;;;;;5066361;28;20078;-79
2022/06/13 09:04:40;;;;;;;8.45;2.90;;;21.10;51.00;;;;;;5062126;28;20047;-78
2022/06/13 09:07:13;;;;;;;;;;;21.00;50.50;;;;;;5062540;28;20043;-78
2022/06/13 09:10:20;;;;;;;5.35;1.88;;;20.80;50.30;;;;;;5068848;28;20440;-78
2022/06/13 09:13:03;;;;;;;8.93;2.40;;;20.70;50.20;;;;;;5072449;28;20139;-78
2022/06/13 09:15:40;;;;;;;6.63;2.03;;;20.60;50.70;;;;;;5075973;28;20178;-77
2022/06/13 09:18:23;;;;;;;5.03;2.00;;;20.80;50.10;;;;;;5076528;27;20024;-77
2022/06/13 09:21:10;;;;;;;4.85;1.77;;;20.90;48.60;;;;;;5098833;28;20036;-78
2022/06/13 09:24:11;;;;;;;7.68;2.38;;;21.10;47.70;;;;;;5086284;28;20032;-80
2022/06/13 09:26:51;;;;;;;7.53;2.45;;;21.00;51.30;;;;;;5062219;28;20085;-81
2022/06/13 09:29:26;;;;;;;9.25;3.05;;;20.10;53.90;;;;;;5079943;28;20047;-78
2022/06/13 09:32:03;;;;;;;8.90;2.33;;;19.60;55.50;;;;;;5082913;28;20055;-79
2022/06/13 09:34:45;;;;;;;7.45;2.28;;;19.50;55.40;;;;;;5082521;28;20031;-78
2022/06/13 09:37:32;;;;;;;6.90;2.05;;;19.80;52.60;;;;;;5075725;28;20059;-77
2022/06/13 09:39:58;;;;;;;5.47;1.75;;;20.00;50.50;;;;;;5081395;28;20055;-79
2022/06/13 09:43:01;;;;;;;7.28;1.90;;;20.00;50.60;;;;;;5064752;28;20032;-77
2022/06/13 09:45:51;;;;;;;4.65;1.85;;;20.10;51.50;;;;;;5079373;28;20040;-79
2022/06/13 09:48:51;;;;;;;5.53;1.98;;;19.90;54.70;;;;;;5038214;28;20165;-75
2022/06/13 09:51:41;;;;;;;6.78;1.67;;;20.20;52.20;;;;;;5095266;28;20094;-76
2022/06/13 09:54:15;;;;;;;4.28;1.42;;;20.70;49.60;;;;;;5093191;28;20067;-80
2022/06/13 09:56:47;;;;;;;4.18;1.40;;;20.60;46.80;;;;;;5076270;28;20047;-80
2022/06/13 09:59:16;;;;;;;5.57;1.60;;;21.00;48.50;;;;;;5057971;28;20085;-77
2022/06/13 10:01:58;;;;;;;3.85;1.65;;;21.10;49.00;;;;;;5062412;28;20044;-78
2022/06/13 10:04:49;;;;;;;6.15;2.08;;;21.10;49.30;;;;;;5063229;28;20755;-76
2022/06/13 10:07:28;;;;;;;5.93;1.73;;;20.50;49.10;;;;;;5096515;28;20565;-79
2022/06/13 10:09:59;;;;;;;6.85;1.70;;;20.70;49.10;;;;;;5087723;28;20066;-77
2022/06/13 10:12:51;;;;;;;5.35;1.70;;;20.60;49.60;;;;;;5077622;28;20136;-81
2022/06/13 10:15:41;;;;;;;5.32;1.90;;;20.40;50.90;;;;;;5080330;28;20028;-78
2022/06/13 10:18:27;;;;;;;7.72;1.85;;;20.00;50.40;;;;;;5074307;28;20093;-77
2022/06/13 10:21:01;;;;;;;6.82;1.60;;;19.90;51.80;;;;;;5078096;28;20088;-76
2022/06/13 10:24:06;;;;;;;6.45;2.08;;;20.60;49.30;;;;;;5080110;28;20036;-76
2022/06/13 10:26:44;;;;;;;5.63;1.38;;;20.80;49.80;;;;;;5020306;28;20040;-76
2022/06/13 10:29:22;;;;;;;4.75;1.70;;;21.00;46.90;;;;;;5082269;27;20047;-75
2022/06/13 10:32:11;;;;;;;4.90;1.60;;;20.60;49.30;;;;;;5083367;27;20483;-76
2022/06/13 10:34:59;;;;;;;5.00;1.30;;;21.20;47.10;;;;;;5082669;28;20089;-80
2022/06/13 10:37:55;;;;;;;7.53;1.70;;;21.20;45.70;;;;;;5079843;28;20047;-80
2022/06/13 10:40:21;;;;;;;4.85;1.45;;;21.40;46.70;;;;;;5076475;28;20085;-77
2022/06/13 10:42:47;;;;;;;7.15;1.48;;;21.70;45.60;;;;;;5076067;28;20046;-76
2022/06/13 10:45:16;;;;;;;3.90;1.30;;;22.10;45.50;;;;;;5078215;28;20036;-77
2022/06/13 10:47:48;;;;;;;4.20;1.23;;;21.60;46.70;;;;;;5060504;28;20024;-78
2022/06/13 10:50:32;;;;;;;5.10;1.42;;;21.50;46.90;;;;;;5076066;28;20032;-79
2022/06/13 10:53:07;;;;;;;5.35;1.52;;;21.40;45.60;;;;;;5062074;28;20763;-77
2022/06/13 10:55:41;;;;;;;5.20;1.60;;;21.70;46.60;;;;;;5076942;28;20047;-79
2022/06/13 10:58:21;;;;;;;6.13;1.50;;;21.70;46.90;;;;;;5075644;28;20044;-78
2022/06/13 11:01:15;;;;;;;4.97;1.42;;;21.00;47.60;;;;;;5061705;28;20242;-76
2022/06/13 11:03:56;;;;;;;5.22;1.50;;;20.90;48.30;;;;;;5077601;28;20433;-80
2022/06/13 11:06:24;;;;;;;6.90;1.50;;;21.30;46.70;;;;;;5076746;28;20070;-77
2022/06/13 11:09:02;;;;;;;6.47;1.58;;;21.90;45.90;;;;;;5076679;28;20032;-82
2022/06/13 11:11:32;;;;;;;5.05;1.20;;;22.40;43.60;;;;;;5061780;28;20063;-79
2022/06/13 11:13:58;;;;;;;6.22;1.50;;;22.10;45.10;;;;;;5081566;28;20120;-79
2022/06/13 11:22:38;;;;;;;3.38;1.20;;;20.80;47.60;;;;;;5083861;28;20121;-79
2022/06/13 11:25:26;;;;;;;2.95;1.20;;;21.40;42.80;;;;;;5080798;28;20055;-80
2022/06/13 11:28:01;;;;;;;3.63;1.10;;;21.60;41.80;;;;;;5071577;28;20125;-81
2022/06/13 11:30:27;;;;;;;5.75;1.63;;;22.10;43.00;;;;;;5087322;28;20044;-79
2022/06/13 11:33:19;;;;;;;4.43;1.40;;;22.10;44.20;;;;;;5086894;28;20040;-80
2022/06/13 11:35:50;;;;;;;5.38;1.45;;;21.50;45.20;;;;;;5082626;28;20028;-77
2022/06/13 11:38:30;;;;;;;5.28;1.70;;;21.20;44.80;;;;;;5080961;28;20104;-77
2022/06/13 11:41:16;;;;;;;2.55;1.20;;;21.50;46.70;;;;;;5084917;28;20036;-80
2022/06/13 11:43:52;;;;;;;5.60;1.30;;;21.20;43.60;;;;;;5084595;28;20085;-77
2022/06/13 11:46:23;;;;;;;4.32;1.30;;;21.20;44.00;;;;;;5076586;28;20040;-78
2022/06/13 11:48:50;;;;;;;6.72;1.60;;;21.50;45.10;;;;;;5083053;28;20123;-78
2022/06/13 11:51:27;;;;;;;3.47;1.58;;;21.60;44.20;;;;;;5084637;28;20050;-77
2022/06/13 11:53:57;;;;;;;6.05;1.67;;;21.40;44.80;;;;;;5083168;28;20376;-78
2022/06/13 11:56:33;;;;;;;3.60;1.33;;;21.60;43.20;;;;;;5062237;28;20491;-77
2022/06/13 11:59:04;;;;;;;4.05;1.60;;;22.10;43.70;;;;;;5082727;28;20033;-77
2022/06/13 12:01:38;;;;;;;5.15;1.40;;;21.50;43.90;;;;;;5086295;28;20040;-78
2022/06/13 12:04:13;;;;;;;;;;;21.60;43.00;;;;;;5083813;28;20129;-79
2022/06/13 12:06:49;;;;;;;2.67;1.00;;;21.70;42.60;;;;;;5081121;28;19919;-78
2022/06/13 12:09:31;;;;;;;5.38;1.70;;;21.90;41.40;;;;;;5069088;28;20074;-79
2022/06/13 12:12:03;;;;;;;3.55;1.38;;;22.00;41.40;;;;;;5082416;28;20054;-83
2022/06/13 12:14:32;;;;;;;5.43;1.50;;;21.40;44.70;;;;;;5101087;28;20454;-82
2022/06/13 12:17:17;;;;;;;4.47;1.48;;;21.20;43.80;;;;;;5089966;28;20040;-78
2022/06/13 12:19:59;;;;;;;5.35;1.60;;;21.30;44.10;;;;;;5083792;28;20036;-84
2022/06/13 12:22:27;;;;;;;4.28;1.40;;;21.40;42.60;;;;;;5087366;27;20043;-79
2022/06/13 12:25:17;;;;;;;4.68;1.50;;;21.70;41.70;;;;;;5073007;28;20448;-77
2022/06/13 12:28:05;;;;;;;5.13;1.48;;;22.20;43.00;;;;;;5084496;28;20051;-79
2022/06/13 12:30:58;;;;;;;6.60;1.52;;;22.80;41.00;;;;;;5080800;28;20032;-83
2022/06/13 12:33:45;;;;;;;7.25;1.73;;;23.00;41.90;;;;;;5084429;28;20044;-79
2022/06/13 12:36:19;;;;;;;4.85;1.40;;;22.40;42.30;;;;;;5073371;28;20048;-77
2022/06/13 12:39:22;;;;;;;3.72;1.52;;;22.00;43.50;;;;;;5099574;28;20044;-81
2022/06/13 12:42:14;;;;;;;3.33;1.33;;;22.20;41.80;;;;;;5094514;28;20044;-78
2022/06/13 12:45:11;;;;;;;4.70;1.48;;;22.80;43.00;;;;;;5070191;28;20121;-78
2022/06/13 12:47:46;;;;;;;4.55;1.67;;;23.00;42.30;;;;;;5063645;28;20066;-82
2022/06/13 12:50:33;;;;;;;4.88;1.65;;;22.80;41.40;;;;;;5079382;28;20056;-82
2022/06/13 12:53:13;;;;;;;4.57;1.50;;;22.20;41.60;;;;;;5079526;28;20044;-87
2022/06/13 12:55:53;;;;;;;3.92;1.42;;;21.80;43.70;;;;;;5089495;28;20043;-77
2022/06/13 12:58:26;;;;;;;4.05;1.20;;;22.20;43.10;;;;;;5083437;28;20364;-82
2022/06/13 13:01:02;;;;;;;4.85;1.55;;;21.60;43.20;;;;;;5085809;28;20040;-80
2022/06/13 13:03:57;;;;;;;5.47;1.42;;;21.30;43.10;;;;;;5083929;28;20419;-81
2022/06/13 13:06:29;;;;;;;;;;;21.30;44.00;;;;;;5077626;28;20036;-77
2022/06/13 13:09:22;;;;;;;3.08;1.20;;;21.40;43.70;;;;;;5081918;27;20321;-77
2022/06/13 13:12:38;;;;;;;4.38;1.52;;;21.60;41.80;;;;;;5083266;28;20070;-77
2022/06/13 13:15:20;;;;;;;3.15;1.20;;;22.30;40.40;;;;;;5080246;28;20416;-79
2022/06/13 13:18:19;;;;;;;4.47;1.50;;;22.50;40.50;;;;;;5083127;28;20060;-79
2022/06/13 13:20:55;;;;;;;6.32;1.15;;;22.10;40.20;;;;;;5076541;28;20123;-79
2022/06/13 13:23:43;;;;;;;6.78;1.77;;;21.20;43.00;;;;;;5081673;27;20040;-80
2022/06/13 13:26:27;;;;;;;6.85;1.60;;;21.30;43.00;;;;;;5079899;28;20042;-84
2022/06/13 13:29:14;;;;;;;4.90;1.60;;;21.50;41.60;;;;;;5063226;28;20372;-81
2022/06/13 13:31:53;;;;;;;4.70;1.35;;;21.70;43.00;;;;;;5068661;28;20199;-82
2022/06/13 13:34:30;;;;;;;3.80;1.40;;;22.00;41.80;;;;;;5061594;28;20033;-81
2022/06/13 13:37:33;;;;;;;3.83;1.20;;;22.40;41.90;;;;;;5060960;28;20378;-81
2022/06/13 13:40:17;;;;;;;2.55;1.15;;;22.10;39.50;;;;;;5079818;28;20177;-81
2022/06/13 13:42:57;;;;;;;6.32;1.33;;;22.20;40.60;;;;;;5064319;28;20434;-83
2022/06/13 13:45:37;;;;;;;4.88;1.40;;;22.30;39.90;;;;;;5080485;28;20044;-83
2022/06/13 13:48:06;;;;;;;4.53;1.30;;;22.30;40.60;;;;;;5074356;28;20369;-82